sensor_id;sensor_type;location;lat;lon;timestamp;pressure;altitude;pressure_sealevel;temperature;humidity
72086;BME280;64750;52.134;5.424;2023-02-19T00:01:14;101909.53;;;9.60;95.02
72086;BME280;64750;52.134;5.424;2023-02-19T00:03:42;101913.13;;;9.58;94.87
72086;BME280;64750;52.134;5.424;2023-02-19T00:06:13;101910.50;;;9.58;94.59
72086;BME280;64750;52.134;5.424;2023-02-19T00:08:39;101913.06;;;9.59;94.79
72086;BME280;64750;52.134;5.424;2023-02-19T00:11:12;101920.06;;;9.59;94.74
72086;BME280;64750;52.134;5.424;2023-02-19T00:13:41;101922.69;;;9.59;94.83
72086;BME280;64750;52.134;5.424;2023-02-19T00:16:19;101921.00;;;9.58;95.01
72086;BME280;64750;52.134;5.424;2023-02-19T00:18:46;101925.31;;;9.59;94.97
72086;BME280;64750;52.134;5.424;2023-02-19T00:21:13;101920.13;;;9.57;94.70
72086;BME280;64750;52.134;5.424;2023-02-19T00:23:40;101925.38;;;9.57;94.99
72086;BME280;64750;52.134;5.424;2023-02-19T00:26:11;101921.84;;;9.58;94.81
72086;BME280;64750;52.134;5.424;2023-02-19T00:28:44;101930.63;;;9.57;94.95
72086;BME280;64750;52.134;5.424;2023-02-19T00:31:20;101935.03;;;9.57;94.91
72086;BME280;64750;52.134;5.424;2023-02-19T00:33:48;101933.31;;;9.56;95.31
72086;BME280;64750;52.134;5.424;2023-02-19T00:36:16;101923.66;;;9.56;94.98
72086;BME280;64750;52.134;5.424;2023-02-19T00:38:43;101931.53;;;9.56;95.24
72086;BME280;64750;52.134;5.424;2023-02-19T00:41:12;101929.84;;;9.55;95.30
72086;BME280;64750;52.134;5.424;2023-02-19T00:46:11;101935.94;;;9.56;95.12
72086;BME280;64750;52.134;5.424;2023-02-19T00:48:37;101932.50;;;9.53;95.36
72086;BME280;64750;52.134;5.424;2023-02-19T00:51:04;101943.94;;;9.52;95.46
72086;BME280;64750;52.134;5.424;2023-02-19T00:53:30;101941.25;;;9.54;95.16
72086;BME280;64750;52.134;5.424;2023-02-19T00:55:57;101928.97;;;9.55;95.12
72086;BME280;64750;52.134;5.424;2023-02-19T00:58:23;101934.22;;;9.55;95.15
72086;BME280;64750;52.134;5.424;2023-02-19T01:00:49;101930.69;;;9.56;94.93
72086;BME280;64750;52.134;5.424;2023-02-19T01:03:16;101935.13;;;9.53;94.96
72086;BME280;64750;52.134;5.424;2023-02-19T01:05:42;101948.25;;;9.53;95.11
72086;BME280;64750;52.134;5.424;2023-02-19T01:08:09;101948.25;;;9.53;95.11
72086;BME280;64750;52.134;5.424;2023-02-19T01:10:35;101948.25;;;9.53;95.05
72086;BME280;64750;52.134;5.424;2023-02-19T01:13:01;101951.81;;;9.52;95.11
72086;BME280;64750;52.134;5.424;2023-02-19T01:15:28;101954.44;;;9.52;94.94
72086;BME280;64750;52.134;5.424;2023-02-19T01:17:54;101952.72;;;9.51;95.03
72086;BME280;64750;52.134;5.424;2023-02-19T01:20:21;101967.59;;;9.51;94.87
72086;BME280;64750;52.134;5.424;2023-02-19T01:22:47;101972.00;;;9.50;94.60
72086;BME280;64750;52.134;5.424;2023-02-19T01:25:14;101965.03;;;9.49;94.66
72086;BME280;64750;52.134;5.424;2023-02-19T01:27:40;101965.03;;;9.49;94.74
72086;BME280;64750;52.134;5.424;2023-02-19T01:30:07;101958.06;;;9.48;94.67
72086;BME280;64750;52.134;5.424;2023-02-19T01:32:33;101967.78;;;9.46;94.48
72086;BME280;64750;52.134;5.424;2023-02-19T01:35:00;101973.03;;;9.46;94.58
72086;BME280;64750;52.134;5.424;2023-02-19T01:37:26;101962.53;;;9.46;94.49
72086;BME280;64750;52.134;5.424;2023-02-19T01:39:53;101973.94;;;9.45;94.48
72086;BME280;64750;52.134;5.424;2023-02-19T01:42:19;101972.16;;;9.46;94.42
72086;BME280;64750;52.134;5.424;2023-02-19T01:47:13;101969.59;;;9.44;94.44
72086;BME280;64750;52.134;5.424;2023-02-19T01:49:51;101967.88;;;9.43;94.53
72086;BME280;64750;52.134;5.424;2023-02-19T01:54:51;101972.41;;;9.40;94.27
72086;BME280;64750;52.134;5.424;2023-02-19T01:57:23;101975.13;;;9.36;94.39
72086;BME280;64750;52.134;5.424;2023-02-19T01:59:54;101977.69;;;9.38;94.45
72086;BME280;64750;52.134;5.424;2023-02-19T02:02:23;101973.31;;;9.39;94.25
72086;BME280;64750;52.134;5.424;2023-02-19T02:04:55;101964.69;;;9.35;94.33
72086;BME280;64750;52.134;5.424;2023-02-19T02:07:22;101974.28;;;9.36;94.35
72086;BME280;64750;52.134;5.424;2023-02-19T02:10:07;101961.25;;;9.34;94.31
72086;BME280;64750;52.134;5.424;2023-02-19T02:12:50;101976.16;;;9.32;94.47
72086;BME280;64750;52.134;5.424;2023-02-19T02:15:18;101976.16;;;9.32;94.41
72086;BME280;64750;52.134;5.424;2023-02-19T02:22:47;101979.69;;;9.31;94.20
72086;BME280;64750;52.134;5.424;2023-02-19T02:30:38;101980.78;;;9.26;94.02
72086;BME280;64750;52.134;5.424;2023-02-19T02:33:20;101986.88;;;9.26;94.14
72086;BME280;64750;52.134;5.424;2023-02-19T02:35:58;101981.69;;;9.25;94.22
72086;BME280;64750;52.134;5.424;2023-02-19T02:38:29;101982.59;;;9.24;93.98
72086;BME280;64750;52.134;5.424;2023-02-19T02:40:57;101987.03;;;9.22;93.78
72086;BME280;64750;52.134;5.424;2023-02-19T02:43:24;101992.34;;;9.20;93.83
72086;BME280;64750;52.134;5.424;2023-02-19T02:45:50;101987.97;;;9.21;94.07
72086;BME280;64750;52.134;5.424;2023-02-19T02:48:36;101993.22;;;9.21;93.85
72086;BME280;64750;52.134;5.424;2023-02-19T02:51:09;101995.84;;;9.21;93.97
72086;BME280;64750;52.134;5.424;2023-02-19T02:56:29;102002.84;;;9.20;93.63
72086;BME280;64750;52.134;5.424;2023-02-19T02:58:57;101999.38;;;9.19;93.68
72086;BME280;64750;52.134;5.424;2023-02-19T03:01:38;102000.28;;;9.18;93.72
72086;BME280;64750;52.134;5.424;2023-02-19T03:04:31;102001.13;;;9.19;93.79
72086;BME280;64750;52.134;5.424;2023-02-19T03:07:03;102000.22;;;9.20;93.75
72086;BME280;64750;52.134;5.424;2023-02-19T03:09:36;102007.25;;;9.19;93.65
72086;BME280;64750;52.134;5.424;2023-02-19T03:12:10;101999.44;;;9.18;93.65
72086;BME280;64750;52.134;5.424;2023-02-19T03:15:00;102015.16;;;9.18;93.83
72086;BME280;64750;52.134;5.424;2023-02-19T03:17:51;102007.28;;;9.18;93.84
72086;BME280;64750;52.134;5.424;2023-02-19T03:20:40;102009.91;;;9.18;93.67
72086;BME280;64750;52.134;5.424;2023-02-19T03:23:08;102009.91;;;9.18;93.74
72086;BME280;64750;52.134;5.424;2023-02-19T03:25:36;102015.16;;;9.18;93.89
72086;BME280;64750;52.134;5.424;2023-02-19T03:28:27;102013.31;;;9.20;94.05
72086;BME280;64750;52.134;5.424;2023-02-19T03:31:18;102023.06;;;9.16;94.03
72086;BME280;64750;52.134;5.424;2023-02-19T03:33:50;102023.13;;;9.15;94.17
72086;BME280;64750;52.134;5.424;2023-02-19T03:36:20;102020.56;;;9.13;94.07
72086;BME280;64750;52.134;5.424;2023-02-19T03:38:56;102025.81;;;9.13;93.82
72086;BME280;64750;52.134;5.424;2023-02-19T03:44:15;102026.66;;;9.14;94.00
72086;BME280;64750;52.134;5.424;2023-02-19T03:49:48;102037.19;;;9.12;93.83
72086;BME280;64750;52.134;5.424;2023-02-19T03:58:17;102040.78;;;9.10;93.03
72086;BME280;64750;52.134;5.424;2023-02-19T04:01:12;102045.19;;;9.09;93.20
72086;BME280;64750;52.134;5.424;2023-02-19T04:03:45;102062.72;;;9.07;93.27
72086;BME280;64750;52.134;5.424;2023-02-19T04:06:25;102053.91;;;9.10;93.49
72086;BME280;64750;52.134;5.424;2023-02-19T04:08:55;102055.75;;;9.08;93.44
72086;BME280;64750;52.134;5.424;2023-02-19T04:11:23;102063.63;;;9.06;93.02
72086;BME280;64750;52.134;5.424;2023-02-19T04:14:01;102066.31;;;9.05;93.44
72086;BME280;64750;52.134;5.424;2023-02-19T04:16:33;102067.13;;;9.07;93.54
72086;BME280;64750;52.134;5.424;2023-02-19T04:19:06;102067.22;;;9.03;93.46
72086;BME280;64750;52.134;5.424;2023-02-19T04:21:35;102079.50;;;9.03;93.71
72086;BME280;64750;52.134;5.424;2023-02-19T04:24:08;102077.78;;;9.02;93.87
72086;BME280;64750;52.134;5.424;2023-02-19T04:26:36;102078.66;;;9.01;93.83
72086;BME280;64750;52.134;5.424;2023-02-19T04:29:02;102081.28;;;9.01;93.55
72086;BME280;64750;52.134;5.424;2023-02-19T04:31:29;102084.72;;;9.03;93.54
72086;BME280;64750;52.134;5.424;2023-02-19T04:33:57;102091.78;;;9.01;93.71
72086;BME280;64750;52.134;5.424;2023-02-19T04:36:23;102093.50;;;9.02;93.82
72086;BME280;64750;52.134;5.424;2023-02-19T04:38:49;102086.53;;;9.01;93.74
72086;BME280;64750;52.134;5.424;2023-02-19T04:41:16;102100.47;;;9.03;93.69
72086;BME280;64750;52.134;5.424;2023-02-19T04:43:42;102104.88;;;9.02;93.73
72086;BME280;64750;52.134;5.424;2023-02-19T04:46:08;102117.03;;;9.03;93.68
72086;BME280;64750;52.134;5.424;2023-02-19T04:48:35;102113.59;;;9.03;93.51
72086;BME280;64750;52.134;5.424;2023-02-19T04:51:05;102114.44;;;9.03;93.17
72086;BME280;64750;52.134;5.424;2023-02-19T04:53:32;102129.38;;;9.01;93.26
72086;BME280;64750;52.134;5.424;2023-02-19T04:56:10;102120.59;;;9.02;93.19
72086;BME280;64750;52.134;5.424;2023-02-19T04:58:38;102142.44;;;9.03;93.42
72086;BME280;64750;52.134;5.424;2023-02-19T05:01:05;102138.03;;;9.03;93.33
72086;BME280;64750;52.134;5.424;2023-02-19T05:03:32;102140.66;;;9.03;93.58
72086;BME280;64750;52.134;5.424;2023-02-19T05:06:05;102136.34;;;9.02;93.47
72086;BME280;64750;52.134;5.424;2023-02-19T05:08:32;102139.88;;;9.01;93.12
72086;BME280;64750;52.134;5.424;2023-02-19T05:11:00;102138.97;;;9.02;93.37
72086;BME280;64750;52.134;5.424;2023-02-19T05:13:27;102142.53;;;9.00;92.99
72086;BME280;64750;52.134;5.424;2023-02-19T05:16:05;102153.03;;;9.00;92.88
72086;BME280;64750;52.134;5.424;2023-02-19T05:18:32;102153.94;;;8.99;93.35
72086;BME280;64750;52.134;5.424;2023-02-19T05:21:00;102153.94;;;8.99;92.86
72086;BME280;64750;52.134;5.424;2023-02-19T05:23:27;102162.66;;;8.99;93.19
72086;BME280;64750;52.134;5.424;2023-02-19T05:25:54;102157.47;;;8.98;93.40
72086;BME280;64750;52.134;5.424;2023-02-19T05:28:20;102158.28;;;9.00;93.31
72086;BME280;64750;52.134;5.424;2023-02-19T05:30:55;102170.47;;;9.01;93.57
72086;BME280;64750;52.134;5.424;2023-02-19T05:33:24;102175.69;;;9.01;93.64
72086;BME280;64750;52.134;5.424;2023-02-19T05:35:53;102174.03;;;8.98;93.51
72086;BME280;64750;52.134;5.424;2023-02-19T05:38:20;102164.44;;;8.99;93.42
72086;BME280;64750;52.134;5.424;2023-02-19T05:40:47;102174.91;;;8.99;93.55
72086;BME280;64750;52.134;5.424;2023-02-19T05:43:14;102177.63;;;8.96;93.41
72086;BME280;64750;52.134;5.424;2023-02-19T05:45:42;102175.00;;;8.96;93.19
72086;BME280;64750;52.134;5.424;2023-02-19T05:48:09;102174.19;;;8.94;93.44
72086;BME280;64750;52.134;5.424;2023-02-19T05:50:36;102182.00;;;8.95;93.48
72086;BME280;64750;52.134;5.424;2023-02-19T05:53:05;102172.38;;;8.96;93.38
72086;BME280;64750;52.134;5.424;2023-02-19T05:55:35;102170.69;;;8.95;93.40
72086;BME280;64750;52.134;5.424;2023-02-19T05:58:02;102179.34;;;8.97;93.34
72086;BME280;64750;52.134;5.424;2023-02-19T06:00:28;102181.16;;;8.95;93.13
72086;BME280;64750;52.134;5.424;2023-02-19T06:02:55;102191.66;;;8.95;92.69
72086;BME280;64750;52.134;5.424;2023-02-19T06:05:22;102193.47;;;8.93;92.69
72086;BME280;64750;52.134;5.424;2023-02-19T06:07:48;102185.59;;;8.93;92.36
72086;BME280;64750;52.134;5.424;2023-02-19T06:10:16;102190.00;;;8.91;92.03
72086;BME280;64750;52.134;5.424;2023-02-19T06:12:42;102190.00;;;8.92;92.06
72086;BME280;64750;52.134;5.424;2023-02-19T06:15:09;102203.22;;;8.88;92.31
72086;BME280;64750;52.134;5.424;2023-02-19T06:17:35;102203.28;;;8.86;92.26
72086;BME280;64750;52.134;5.424;2023-02-19T06:20:02;102210.25;;;8.87;92.53
72086;BME280;64750;52.134;5.424;2023-02-19T06:22:29;102219.88;;;8.86;92.64
72086;BME280;64750;52.134;5.424;2023-02-19T06:24:55;102227.72;;;8.86;92.14
72086;BME280;64750;52.134;5.424;2023-02-19T06:27:21;102219.03;;;8.86;92.29
72086;BME280;64750;52.134;5.424;2023-02-19T06:29:48;102234.63;;;8.89;92.28
72086;BME280;64750;52.134;5.424;2023-02-19T06:32:15;102242.66;;;8.84;92.60
72086;BME280;64750;52.134;5.424;2023-02-19T06:34:42;102249.72;;;8.82;92.71
72086;BME280;64750;52.134;5.424;2023-02-19T06:37:08;102249.72;;;8.82;92.95
72086;BME280;64750;52.134;5.424;2023-02-19T06:39:35;102243.63;;;8.82;92.87
72086;BME280;64750;52.134;5.424;2023-02-19T06:42:01;102248.88;;;8.82;93.15
72086;BME280;64750;52.134;5.424;2023-02-19T06:44:28;102250.59;;;8.81;93.06
72086;BME280;64750;52.134;5.424;2023-02-19T06:46:54;102254.09;;;8.82;93.12
72086;BME280;64750;52.134;5.424;2023-02-19T06:49:21;102257.53;;;8.84;93.30
72086;BME280;64750;52.134;5.424;2023-02-19T06:51:47;102254.94;;;8.82;92.92
72086;BME280;64750;52.134;5.424;2023-02-19T06:54:14;102258.47;;;8.81;93.10
72086;BME280;64750;52.134;5.424;2023-02-19T06:56:40;102260.28;;;8.79;93.55
72086;BME280;64750;52.134;5.424;2023-02-19T06:59:11;102262.09;;;8.77;93.14
72086;BME280;64750;52.134;5.424;2023-02-19T07:01:38;102262.22;;;8.73;93.14
72086;BME280;64750;52.134;5.424;2023-02-19T07:04:06;102265.75;;;8.72;93.38
72086;BME280;64750;52.134;5.424;2023-02-19T07:06:33;102275.31;;;8.73;93.42
72086;BME280;64750;52.134;5.424;2023-02-19T07:09:01;102283.34;;;8.68;93.15
72086;BME280;64750;52.134;5.424;2023-02-19T07:11:30;102284.19;;;8.68;93.25
72086;BME280;64750;52.134;5.424;2023-02-19T07:13:58;102289.44;;;8.68;93.51
72086;BME280;64750;52.134;5.424;2023-02-19T07:16:25;102290.38;;;8.66;93.54
72086;BME280;64750;52.134;5.424;2023-02-19T07:18:55;102299.81;;;8.72;93.50
72086;BME280;64750;52.134;5.424;2023-02-19T07:21:22;102299.91;;;8.68;93.19
72086;BME280;64750;52.134;5.424;2023-02-19T07:23:48;102309.47;;;8.71;93.36
72086;BME280;64750;52.134;5.424;2023-02-19T07:26:16;102312.03;;;8.73;93.39
72086;BME280;64750;52.134;5.424;2023-02-19T07:28:45;102318.16;;;8.73;93.44
72086;BME280;64750;52.134;5.424;2023-02-19T07:31:17;102328.63;;;8.73;93.31
72086;BME280;64750;52.134;5.424;2023-02-19T07:33:44;102315.53;;;8.73;93.30
72086;BME280;64750;52.134;5.424;2023-02-19T07:36:13;102322.50;;;8.73;93.38
72086;BME280;64750;52.134;5.424;2023-02-19T07:38:40;102337.34;;;8.74;93.08
72086;BME280;64750;52.134;5.424;2023-02-19T07:41:06;102335.56;;;8.74;93.43
72086;BME280;64750;52.134;5.424;2023-02-19T07:43:35;102336.41;;;8.76;93.22
72086;BME280;64750;52.134;5.424;2023-02-19T07:46:03;102324.13;;;8.77;93.45
72086;BME280;64750;52.134;5.424;2023-02-19T07:48:30;102337.28;;;8.75;93.35
72086;BME280;64750;52.134;5.424;2023-02-19T07:50:58;102335.56;;;8.74;93.19
72086;BME280;64750;52.134;5.424;2023-02-19T07:53:27;102340.78;;;8.76;93.07
72086;BME280;64750;52.134;5.424;2023-02-19T07:55:58;102350.34;;;8.77;93.08
72086;BME280;64750;52.134;5.424;2023-02-19T07:58:24;102351.22;;;8.77;93.17
72086;BME280;64750;52.134;5.424;2023-02-19T08:00:51;102351.22;;;8.77;92.90
72086;BME280;64750;52.134;5.424;2023-02-19T08:03:17;102351.22;;;8.77;92.95
72086;BME280;64750;52.134;5.424;2023-02-19T08:05:44;102354.69;;;8.78;93.18
72086;BME280;64750;52.134;5.424;2023-02-19T08:08:12;102364.28;;;8.79;93.26
72086;BME280;64750;52.134;5.424;2023-02-19T08:10:39;102365.13;;;8.81;92.97
72086;BME280;64750;52.134;5.424;2023-02-19T08:13:27;102365.06;;;8.82;92.98
72086;BME280;64750;52.134;5.424;2023-02-19T08:16:08;102372.09;;;8.80;93.20
72086;BME280;64750;52.134;5.424;2023-02-19T08:18:47;102380.88;;;8.79;93.18
72086;BME280;64750;52.134;5.424;2023-02-19T08:21:14;102383.47;;;8.81;92.99
72086;BME280;64750;52.134;5.424;2023-02-19T08:23:43;102387.03;;;8.78;93.12
72086;BME280;64750;52.134;5.424;2023-02-19T08:26:11;102393.19;;;8.77;93.27
72086;BME280;64750;52.134;5.424;2023-02-19T08:28:38;102396.78;;;8.73;93.31
72086;BME280;64750;52.134;5.424;2023-02-19T08:31:05;102404.59;;;8.75;93.27
72086;BME280;64750;52.134;5.424;2023-02-19T08:33:33;102410.78;;;8.72;93.67
72086;BME280;64750;52.134;5.424;2023-02-19T08:36:04;102405.59;;;8.70;93.80
72086;BME280;64750;52.134;5.424;2023-02-19T08:38:32;102412.59;;;8.70;93.81
72086;BME280;64750;52.134;5.424;2023-02-19T08:41:05;102415.25;;;8.68;94.04
72086;BME280;64750;52.134;5.424;2023-02-19T08:43:32;102418.69;;;8.70;93.90
72086;BME280;64750;52.134;5.424;2023-02-19T08:45:59;102418.66;;;8.72;94.12
72086;BME280;64750;52.134;5.424;2023-02-19T08:48:25;102415.13;;;8.73;93.85
72086;BME280;64750;52.134;5.424;2023-02-19T08:50:57;102428.19;;;8.75;94.14
72086;BME280;64750;52.134;5.424;2023-02-19T08:53:25;102417.63;;;8.78;93.91
72086;BME280;64750;52.134;5.424;2023-02-19T08:55:51;102421.97;;;8.79;93.78
72086;BME280;64750;52.134;5.424;2023-02-19T08:58:18;102422.81;;;8.79;93.94
72086;BME280;64750;52.134;5.424;2023-02-19T09:00:44;102421.13;;;8.78;93.89
72086;BME280;64750;52.134;5.424;2023-02-19T09:03:11;102422.00;;;8.77;93.55
72086;BME280;64750;52.134;5.424;2023-02-19T09:05:37;102425.44;;;8.79;93.97
72086;BME280;64750;52.134;5.424;2023-02-19T09:08:04;102421.13;;;8.77;93.46
72086;BME280;64750;52.134;5.424;2023-02-19T09:10:31;102417.56;;;8.79;93.39
72086;BME280;64750;52.134;5.424;2023-02-19T09:12:57;102431.50;;;8.81;93.65
72086;BME280;64750;52.134;5.424;2023-02-19T09:15:23;102417.50;;;8.82;93.50
72086;BME280;64750;52.134;5.424;2023-02-19T09:17:53;102440.19;;;8.83;93.57
72086;BME280;64750;52.134;5.424;2023-02-19T09:20:19;102448.88;;;8.85;93.95
72086;BME280;64750;52.134;5.424;2023-02-19T09:22:46;102446.22;;;8.87;93.66
72086;BME280;64750;52.134;5.424;2023-02-19T09:25:12;102443.59;;;8.87;93.45
72086;BME280;64750;52.134;5.424;2023-02-19T09:27:39;102448.72;;;8.92;93.81
72086;BME280;64750;52.134;5.424;2023-02-19T09:30:05;102453.88;;;8.95;93.85
72086;BME280;64750;52.134;5.424;2023-02-19T09:32:32;102463.53;;;8.93;93.22
72086;BME280;64750;52.134;5.424;2023-02-19T09:34:58;102482.78;;;8.92;93.30
72086;BME280;64750;52.134;5.424;2023-02-19T09:37:26;102483.69;;;8.91;93.24
72086;BME280;64750;52.134;5.424;2023-02-19T09:39:53;102488.94;;;8.91;93.43
72086;BME280;64750;52.134;5.424;2023-02-19T09:42:26;102496.91;;;8.88;93.22
72086;BME280;64750;52.134;5.424;2023-02-19T09:44:56;102498.53;;;8.92;93.18
72086;BME280;64750;52.134;5.424;2023-02-19T09:47:25;102506.34;;;8.95;93.32
72086;BME280;64750;52.134;5.424;2023-02-19T09:49:55;102513.47;;;8.90;93.32
72086;BME280;64750;52.134;5.424;2023-02-19T09:52:41;102514.41;;;8.85;92.90
72086;BME280;64750;52.134;5.424;2023-02-19T09:58:02;102522.44;;;8.79;92.90
72086;BME280;64750;52.134;5.424;2023-02-19T10:00:34;102529.41;;;8.80;92.88
72086;BME280;64750;52.134;5.424;2023-02-19T10:03:08;102526.03;;;8.75;93.00
72086;BME280;64750;52.134;5.424;2023-02-19T10:05:37;102538.41;;;8.70;92.99
72086;BME280;64750;52.134;5.424;2023-02-19T10:08:08;102544.53;;;8.69;92.92
72086;BME280;64750;52.134;5.424;2023-02-19T10:10:38;102563.72;;;8.71;93.06
72086;BME280;64750;52.134;5.424;2023-02-19T10:13:21;102571.75;;;8.65;92.54
72086;BME280;64750;52.134;5.424;2023-02-19T10:15:55;102568.31;;;8.63;92.38
72086;BME280;64750;52.134;5.424;2023-02-19T10:18:27;102580.66;;;8.58;92.32
72086;BME280;64750;52.134;5.424;2023-02-19T10:20:55;102584.19;;;8.57;92.53
72086;BME280;64750;52.134;5.424;2023-02-19T10:23:23;102586.84;;;8.55;92.52
72086;BME280;64750;52.134;5.424;2023-02-19T10:25:57;102593.94;;;8.50;92.08
72086;BME280;64750;52.134;5.424;2023-02-19T10:28:29;102599.97;;;8.53;91.98
72086;BME280;64750;52.134;5.424;2023-02-19T10:30:58;102608.75;;;8.52;92.04
72086;BME280;64750;52.134;5.424;2023-02-19T10:33:25;102604.38;;;8.51;92.31
72086;BME280;64750;52.134;5.424;2023-02-19T10:35:57;102611.38;;;8.51;92.27
72086;BME280;64750;52.134;5.424;2023-02-19T10:38:30;102614.13;;;8.46;92.14
72086;BME280;64750;52.134;5.424;2023-02-19T10:41:12;102608.75;;;8.52;91.95
72086;BME280;64750;52.134;5.424;2023-02-19T10:43:44;102613.25;;;8.46;91.87
72086;BME280;64750;52.134;5.424;2023-02-19T10:46:27;102614.13;;;8.46;92.15
72086;BME280;64750;52.134;5.424;2023-02-19T10:48:57;102617.59;;;8.47;91.96
72086;BME280;64750;52.134;5.424;2023-02-19T10:51:35;102618.47;;;8.46;91.63
72086;BME280;64750;52.134;5.424;2023-02-19T10:54:24;102623.81;;;8.41;91.85
72086;BME280;64750;52.134;5.424;2023-02-19T10:56:51;102611.56;;;8.42;91.49
72086;BME280;64750;52.134;5.424;2023-02-19T10:59:27;102617.59;;;8.47;92.11
72086;BME280;64750;52.134;5.424;2023-02-19T11:01:54;102607.84;;;8.52;91.87
72086;BME280;64750;52.134;5.424;2023-02-19T11:04:23;102600.13;;;8.46;91.39
72086;BME280;64750;52.134;5.424;2023-02-19T11:06:50;102593.16;;;8.46;91.76
72086;BME280;64750;52.134;5.424;2023-02-19T11:09:25;102590.41;;;8.52;91.68
72086;BME280;64750;52.134;5.424;2023-02-19T11:11:54;102608.69;;;8.54;91.64
72086;BME280;64750;52.134;5.424;2023-02-19T11:14:23;102609.72;;;8.45;91.90
72086;BME280;64750;52.134;5.424;2023-02-19T11:16:52;102614.00;;;8.51;91.77
72086;BME280;64750;52.134;5.424;2023-02-19T11:19:28;102623.63;;;8.50;91.29
72086;BME280;64750;52.134;5.424;2023-02-19T11:21:57;102632.59;;;8.38;91.17
72086;BME280;64750;52.134;5.424;2023-02-19T11:26:52;102625.69;;;8.34;91.05
72086;BME280;64750;52.134;5.424;2023-02-19T11:29:21;102629.94;;;8.40;91.54
72086;BME280;64750;52.134;5.424;2023-02-19T11:31:48;102620.25;;;8.44;91.41
72086;BME280;64750;52.134;5.424;2023-02-19T11:37:06;102626.44;;;8.41;91.70
72086;BME280;64750;52.134;5.424;2023-02-19T11:39:33;102630.09;;;8.32;91.33
72086;BME280;64750;52.134;5.424;2023-02-19T11:42:28;102634.63;;;8.26;91.36
72086;BME280;64750;52.134;5.424;2023-02-19T11:50:45;102632.97;;;8.20;91.39
72086;BME280;64750;52.134;5.424;2023-02-19T11:53:22;102640.97;;;8.15;91.25
72086;BME280;64750;52.134;5.424;2023-02-19T11:56:24;102634.78;;;8.16;91.56
72086;BME280;64750;52.134;5.424;2023-02-19T11:59:04;102621.66;;;8.19;91.73
72086;BME280;64750;52.134;5.424;2023-02-19T12:07:26;102642.97;;;8.01;91.27
72086;BME280;64750;52.134;5.424;2023-02-19T12:10:24;102636.09;;;7.97;91.32
72086;BME280;64750;52.134;5.424;2023-02-19T12:26:26;102649.13;;;7.98;90.99
72086;BME280;64750;52.134;5.424;2023-02-19T12:40:24;102667.00;;;7.78;90.08
72086;BME280;64750;52.134;5.424;2023-02-19T12:43:04;102674.81;;;7.79;90.41
72086;BME280;64750;52.134;5.424;2023-02-19T12:45:44;102668.69;;;7.80;90.58
72086;BME280;64750;52.134;5.424;2023-02-19T12:50:39;102677.34;;;7.84;90.79
72086;BME280;64750;52.134;5.424;2023-02-19T12:53:29;102682.56;;;7.85;91.05
72086;BME280;64750;52.134;5.424;2023-02-19T12:55:58;102683.50;;;7.81;90.49
72086;BME280;64750;52.134;5.424;2023-02-19T12:58:34;102696.59;;;7.81;90.25
72086;BME280;64750;52.134;5.424;2023-02-19T13:01:04;102700.09;;;7.80;89.99
72086;BME280;64750;52.134;5.424;2023-02-19T13:04:05;102707.13;;;7.78;90.47
72086;BME280;64750;52.134;5.424;2023-02-19T13:06:42;102701.91;;;7.77;90.05
72086;BME280;64750;52.134;5.424;2023-02-19T13:09:12;102695.94;;;7.70;90.12
72086;BME280;64750;52.134;5.424;2023-02-19T13:11:48;102701.19;;;7.68;90.19
72086;BME280;64750;52.134;5.424;2023-02-19T13:14:38;102714.28;;;7.68;89.84
72086;BME280;64750;52.134;5.424;2023-02-19T13:17:18;102720.28;;;7.75;90.14
72086;BME280;64750;52.134;5.424;2023-02-19T13:19:49;102730.75;;;7.75;90.19
72086;BME280;64750;52.134;5.424;2023-02-19T13:22:30;102736.06;;;7.69;90.08
72086;BME280;64750;52.134;5.424;2023-02-19T13:25:18;102734.47;;;7.62;90.36
72086;BME280;64750;52.134;5.424;2023-02-19T13:28:06;102742.31;;;7.62;90.14
72086;BME280;64750;52.134;5.424;2023-02-19T13:33:42;102738.81;;;7.61;89.96
72086;BME280;64750;52.134;5.424;2023-02-19T13:36:13;102737.06;;;7.63;89.17
72086;BME280;64750;52.134;5.424;2023-02-19T13:38:46;102744.88;;;7.65;89.29
72086;BME280;64750;52.134;5.424;2023-02-19T13:41:30;102743.94;;;7.69;88.87
72086;BME280;64750;52.134;5.424;2023-02-19T13:44:03;102746.53;;;7.70;89.06
72086;BME280;64750;52.134;5.424;2023-02-19T13:46:37;102752.72;;;7.65;88.80
72086;BME280;64750;52.134;5.424;2023-02-19T13:49:38;102760.66;;;7.62;88.63
72086;BME280;64750;52.134;5.424;2023-02-19T14:01:05;102763.16;;;7.66;88.04
72086;BME280;64750;52.134;5.424;2023-02-19T14:06:05;102762.13;;;7.78;87.96
72086;BME280;64750;52.134;5.424;2023-02-19T14:08:55;102770.88;;;7.76;87.79
72086;BME280;64750;52.134;5.424;2023-02-19T14:14:23;102769.97;;;7.77;86.68
72086;BME280;64750;52.134;5.424;2023-02-19T14:33:15;102742.84;;;7.82;85.61
72086;BME280;64750;52.134;5.424;2023-02-19T14:35:45;102737.63;;;7.81;85.01
72086;BME280;64750;52.134;5.424;2023-02-19T14:38:19;102734.09;;;7.83;84.78
72086;BME280;64750;52.134;5.424;2023-02-19T14:40:47;102733.09;;;7.89;84.84
72086;BME280;64750;52.134;5.424;2023-02-19T14:43:17;102726.19;;;7.86;84.70
72086;BME280;64750;52.134;5.424;2023-02-19T14:45:52;102718.31;;;7.86;83.75
72086;BME280;64750;52.134;5.424;2023-02-19T14:48:47;102718.31;;;7.86;83.63
72086;BME280;64750;52.134;5.424;2023-02-19T14:51:23;102714.00;;;7.84;83.49
72086;BME280;64750;52.134;5.424;2023-02-19T14:53:53;102713.13;;;7.85;83.57
72086;BME280;64750;52.134;5.424;2023-02-19T14:56:31;102719.09;;;7.92;83.24
72086;BME280;64750;52.134;5.424;2023-02-19T14:59:08;102716.38;;;7.98;83.22
72086;BME280;64750;52.134;5.424;2023-02-19T15:01:42;102705.09;;;7.94;82.51
72086;BME280;64750;52.134;5.424;2023-02-19T15:04:21;102701.66;;;7.91;81.73
72086;BME280;64750;52.134;5.424;2023-02-19T15:06:48;102697.38;;;7.86;81.28
72086;BME280;64750;52.134;5.424;2023-02-19T15:09:15;102697.38;;;7.86;81.33
72086;BME280;64750;52.134;5.424;2023-02-19T15:11:42;102693.81;;;7.91;81.05
72086;BME280;64750;52.134;5.424;2023-02-19T15:14:18;102703.38;;;7.92;81.57